createdAt,value
2018-12-16T00:00:47.599Z,21.85
2018-12-16T00:03:13.679Z,21.83
2018-12-16T00:05:39.648Z,21.84
2018-12-16T00:08:05.662Z,21.84
2018-12-16T00:10:31.649Z,21.85
2018-12-16T00:12:57.657Z,21.84
2018-12-16T00:15:23.626Z,21.86
2018-12-16T00:17:49.634Z,21.84
2018-12-16T00:20:15.635Z,21.84
2018-12-16T00:22:41.613Z,21.84
2018-12-16T00:25:07.578Z,21.85
2018-12-16T00:27:33.567Z,21.84
2018-12-16T00:29:59.546Z,21.84
2018-12-16T00:32:25.534Z,21.84
2018-12-16T00:34:51.523Z,21.81
2018-12-16T00:37:17.511Z,21.83
2018-12-16T00:39:43.484Z,21.82
2018-12-16T00:42:09.483Z,21.82
2018-12-16T00:44:35.449Z,21.83
2018-12-16T00:47:01.435Z,21.83
2018-12-16T00:49:27.445Z,21.82
2018-12-16T00:51:53.421Z,21.81
2018-12-16T00:54:19.423Z,21.82
2018-12-16T00:56:45.425Z,21.83
2018-12-16T00:59:11.413Z,21.84
2018-12-16T01:01:37.399Z,21.81
2018-12-16T01:04:03.386Z,21.84
2018-12-16T01:06:29.365Z,21.84
2018-12-16T01:08:55.350Z,21.81
2018-12-16T01:11:21.376Z,21.81
2018-12-16T01:13:47.334Z,21.81
2018-12-16T01:16:13.327Z,21.79
2018-12-16T01:18:39.308Z,21.77
2018-12-16T01:21:05.317Z,21.82
2018-12-16T01:23:31.290Z,21.84
2018-12-16T01:25:57.292Z,21.82
2018-12-16T01:28:23.255Z,21.83
2018-12-16T01:30:49.243Z,21.82
2018-12-16T01:33:15.207Z,21.79
2018-12-16T01:35:41.247Z,21.81
2018-12-16T01:38:07.213Z,21.79
2018-12-16T01:40:33.199Z,21.81
2018-12-16T01:42:59.192Z,21.80
2018-12-16T01:45:25.176Z,21.84
2018-12-16T01:47:51.180Z,21.81
2018-12-16T01:50:17.212Z,21.81
2018-12-16T01:52:49.845Z,21.82
2018-12-16T01:55:09.209Z,21.82
2018-12-16T01:57:35.216Z,21.81
2018-12-16T02:00:01.214Z,21.79
2018-12-16T02:02:27.182Z,21.81
2018-12-16T02:04:53.169Z,21.83
2018-12-16T02:07:19.195Z,21.79
2018-12-16T02:09:45.166Z,21.83
2018-12-16T02:12:11.142Z,21.81
2018-12-16T02:14:37.119Z,21.80
2018-12-16T02:17:03.132Z,21.81
2018-12-16T02:19:29.109Z,21.80
2018-12-16T02:21:55.103Z,21.78
2018-12-16T02:24:21.070Z,21.78
2018-12-16T02:26:47.042Z,21.79
2018-12-16T02:29:13.019Z,21.80
2018-12-16T02:31:39.000Z,21.78
2018-12-16T02:34:04.994Z,21.78
2018-12-16T02:36:30.962Z,21.79
2018-12-16T02:38:56.966Z,21.80
2018-12-16T02:41:22.973Z,21.81
2018-12-16T02:43:48.965Z,21.78
2018-12-16T02:46:14.925Z,21.80
2018-12-16T02:48:40.922Z,21.80
2018-12-16T02:51:06.901Z,21.80
2018-12-16T02:53:32.898Z,21.82
2018-12-16T02:55:58.860Z,21.81
2018-12-16T02:58:24.888Z,21.81
2018-12-16T03:00:50.831Z,21.79
2018-12-16T03:03:16.829Z,21.79
2018-12-16T03:05:42.814Z,21.77
2018-12-16T03:08:08.831Z,21.80
2018-12-16T03:10:34.799Z,21.77
2018-12-16T03:13:00.760Z,21.77
2018-12-16T03:15:26.733Z,21.78
2018-12-16T03:17:52.708Z,21.80
2018-12-16T03:20:18.706Z,21.78
2018-12-16T03:22:44.673Z,21.80
2018-12-16T03:25:10.643Z,21.80
2018-12-16T03:27:36.601Z,21.79
2018-12-16T03:30:02.627Z,21.78
2018-12-16T03:32:28.592Z,21.82
2018-12-16T03:34:54.559Z,21.81
2018-12-16T03:37:20.565Z,21.80
2018-12-16T03:39:46.540Z,21.82
2018-12-16T03:42:12.506Z,21.81
2018-12-16T03:44:38.495Z,21.81
2018-12-16T03:47:04.481Z,21.79
2018-12-16T03:49:30.448Z,21.81
2018-12-16T03:51:56.426Z,21.81
2018-12-16T03:54:22.398Z,21.82
2018-12-16T03:56:48.375Z,21.84
2018-12-16T03:59:14.372Z,21.79
2018-12-16T04:01:40.331Z,21.80
2018-12-16T04:04:06.317Z,21.83
2018-12-16T04:06:32.301Z,21.85
2018-12-16T04:08:58.281Z,21.80
2018-12-16T04:11:24.286Z,21.83
2018-12-16T04:13:50.256Z,21.83
2018-12-16T04:16:16.247Z,21.84
2018-12-16T04:18:42.217Z,21.82
2018-12-16T04:21:08.179Z,21.79
2018-12-16T04:23:34.194Z,21.80
2018-12-16T04:26:00.179Z,21.85
2018-12-16T04:28:26.167Z,21.83
2018-12-16T04:30:52.140Z,21.82
2018-12-16T04:33:18.136Z,21.80
2018-12-16T04:35:44.136Z,21.78
2018-12-16T04:38:10.093Z,21.80
2018-12-16T04:40:36.086Z,21.75
2018-12-16T04:43:02.055Z,21.75
2018-12-16T04:45:28.078Z,21.80
2018-12-16T04:47:54.076Z,21.77
2018-12-16T04:50:20.065Z,21.81
2018-12-16T04:52:46.042Z,21.83
2018-12-16T04:55:12.023Z,21.79
2018-12-16T04:57:37.998Z,21.81
2018-12-16T05:00:04.060Z,21.80
2018-12-16T05:02:30.049Z,21.79
2018-12-16T05:04:56.006Z,21.81
2018-12-16T05:07:21.980Z,21.83
2018-12-16T05:09:47.961Z,21.80
2018-12-16T05:12:13.941Z,21.77
2018-12-16T05:14:39.954Z,21.81
2018-12-16T05:17:05.953Z,21.84
2018-12-16T05:19:31.914Z,21.88
2018-12-16T05:21:57.901Z,21.88
2018-12-16T05:24:23.871Z,21.94
2018-12-16T05:26:49.853Z,21.95
2018-12-16T05:29:15.824Z,21.95
2018-12-16T05:31:41.796Z,21.85
2018-12-16T05:34:07.822Z,21.82
2018-12-16T05:36:33.831Z,21.84
2018-12-16T05:38:59.784Z,21.79
2018-12-16T05:41:25.770Z,21.81
2018-12-16T05:43:51.750Z,21.81
2018-12-16T05:46:17.735Z,21.83
2018-12-16T05:48:43.738Z,21.86
2018-12-16T05:51:09.757Z,21.85
2018-12-16T05:53:35.713Z,21.82
2018-12-16T05:56:01.702Z,21.79
2018-12-16T05:58:27.690Z,21.85
2018-12-16T06:00:53.660Z,21.87
2018-12-16T06:03:19.656Z,21.90
2018-12-16T06:05:45.642Z,21.92
2018-12-16T06:08:11.632Z,21.92
2018-12-16T06:10:37.607Z,21.96
2018-12-16T06:13:03.596Z,21.98
2018-12-16T06:15:29.558Z,21.97
2018-12-16T06:17:55.545Z,21.93
2018-12-16T06:20:21.545Z,21.94
2018-12-16T06:22:47.508Z,21.99
2018-12-16T06:25:13.489Z,21.99
2018-12-16T06:27:39.487Z,21.95
2018-12-16T06:30:05.745Z,21.96
2018-12-16T06:32:31.722Z,21.98
2018-12-16T06:34:57.711Z,22.00
2018-12-16T06:37:23.701Z,21.98
2018-12-16T06:39:49.680Z,22.01
2018-12-16T06:42:15.683Z,22.00
2018-12-16T06:44:41.649Z,21.98
2018-12-16T06:47:07.739Z,22.02
2018-12-16T06:49:33.700Z,21.99
2018-12-16T06:51:59.686Z,21.99
2018-12-16T06:54:25.661Z,21.99
2018-12-16T06:56:51.637Z,21.94
2018-12-16T06:59:17.632Z,21.97
2018-12-16T07:01:43.593Z,21.96
2018-12-16T07:04:09.599Z,21.95
2018-12-16T07:06:35.630Z,21.96
2018-12-16T07:09:01.629Z,21.94
2018-12-16T07:11:27.653Z,21.96
2018-12-16T07:13:53.639Z,21.94
2018-12-16T07:16:19.627Z,21.94
2018-12-16T07:18:45.605Z,21.97
2018-12-16T07:21:11.599Z,21.94
2018-12-16T07:23:37.595Z,21.93
2018-12-16T07:26:03.588Z,21.86
2018-12-16T07:28:29.582Z,21.84
2018-12-16T07:30:55.573Z,21.79
2018-12-16T07:33:21.566Z,21.84
2018-12-16T07:35:47.565Z,21.83
2018-12-16T07:38:13.517Z,21.82
2018-12-16T07:40:39.516Z,21.74
2018-12-16T07:43:05.522Z,21.84
2018-12-16T07:45:31.518Z,21.87
2018-12-16T07:47:57.484Z,21.85
2018-12-16T07:50:23.452Z,21.86
2018-12-16T07:52:49.452Z,21.84
2018-12-16T07:55:15.427Z,21.87
2018-12-16T07:57:41.381Z,21.86
2018-12-16T08:00:07.408Z,21.82
2018-12-16T08:02:33.438Z,21.89
2018-12-16T08:04:59.400Z,21.85
2018-12-16T08:07:25.366Z,21.87
2018-12-16T08:09:51.335Z,21.83
2018-12-16T08:12:17.383Z,21.84
2018-12-16T08:14:43.370Z,21.80
2018-12-16T08:17:09.393Z,21.76
2018-12-16T08:19:35.370Z,21.77
2018-12-16T08:22:01.352Z,21.74
2018-12-16T08:24:27.372Z,21.75
2018-12-16T08:26:53.353Z,21.81
2018-12-16T08:29:19.340Z,21.84
2018-12-16T08:31:45.354Z,21.85
2018-12-16T08:34:11.317Z,21.78
2018-12-16T08:36:37.307Z,21.78
2018-12-16T08:39:03.295Z,21.75
2018-12-16T08:41:29.306Z,21.72
2018-12-16T08:43:55.273Z,21.68
2018-12-16T08:46:21.264Z,21.67
2018-12-16T08:48:47.261Z,21.65
2018-12-16T08:51:13.222Z,21.57
2018-12-16T08:53:39.214Z,21.51
2018-12-16T08:56:05.202Z,21.46
2018-12-16T08:58:31.191Z,21.40
2018-12-16T09:00:57.174Z,21.41
2018-12-16T09:03:23.192Z,21.41
2018-12-16T09:05:49.243Z,21.41
2018-12-16T09:08:15.220Z,21.42
2018-12-16T09:10:41.252Z,21.42
2018-12-16T09:13:07.230Z,21.45
2018-12-16T09:15:33.212Z,21.39
2018-12-16T09:17:59.225Z,21.41
2018-12-16T09:20:25.181Z,21.37
2018-12-16T09:22:51.188Z,21.40
2018-12-16T09:25:17.174Z,21.41
2018-12-16T09:27:43.196Z,21.44
2018-12-16T09:30:09.164Z,21.44
2018-12-16T09:32:35.129Z,21.45
2018-12-16T09:35:01.174Z,21.45
2018-12-16T09:37:27.180Z,21.50
2018-12-16T09:39:53.160Z,21.46
2018-12-16T09:42:19.128Z,21.44
2018-12-16T09:44:45.131Z,21.51
2018-12-16T09:47:11.105Z,21.46
2018-12-16T09:49:37.102Z,21.51
2018-12-16T09:52:03.072Z,21.51
2018-12-16T09:54:29.128Z,21.51
2018-12-16T09:56:55.052Z,21.46
2018-12-16T09:59:21.052Z,21.43
2018-12-16T10:01:47.062Z,21.49
2018-12-16T10:04:13.085Z,21.45
2018-12-16T10:06:39.045Z,21.49
2018-12-16T10:09:05.043Z,21.50
2018-12-16T10:11:31.003Z,21.45
2018-12-16T10:13:57.011Z,21.50
2018-12-16T10:16:22.985Z,21.49
2018-12-16T10:18:49.006Z,21.55
2018-12-16T10:21:14.978Z,21.46
2018-12-16T10:23:40.957Z,21.50
2018-12-16T10:26:06.946Z,21.43
2018-12-16T10:28:32.962Z,21.40
2018-12-16T10:30:58.933Z,21.50
2018-12-16T10:33:24.932Z,21.45
2018-12-16T10:35:50.953Z,21.53
2018-12-16T10:38:16.937Z,21.49
2018-12-16T10:40:42.902Z,21.47
2018-12-16T10:43:08.891Z,21.61
2018-12-16T10:45:34.881Z,21.64
2018-12-16T10:48:00.848Z,21.72
2018-12-16T10:50:26.843Z,21.72
2018-12-16T10:52:52.837Z,21.74
2018-12-16T10:55:18.819Z,21.74
2018-12-16T10:57:44.851Z,21.75
2018-12-16T11:00:10.835Z,21.74
2018-12-16T11:02:36.815Z,21.78
2018-12-16T11:05:02.838Z,21.81
2018-12-16T11:07:28.839Z,21.84
2018-12-16T11:09:54.833Z,21.81
2018-12-16T11:12:20.818Z,21.83
2018-12-16T11:14:46.791Z,21.80
2018-12-16T11:17:12.800Z,21.75
2018-12-16T11:19:38.779Z,21.72
2018-12-16T11:22:04.765Z,21.71
2018-12-16T11:24:30.832Z,21.71
2018-12-16T11:26:56.819Z,21.72
2018-12-16T11:29:22.816Z,21.76
2018-12-16T11:31:48.812Z,21.76
2018-12-16T11:34:14.781Z,21.79
2018-12-16T11:36:40.770Z,21.76
2018-12-16T11:39:06.822Z,21.73
2018-12-16T11:41:33.024Z,21.74
2018-12-16T11:43:59.002Z,21.84
2018-12-16T11:46:25.035Z,21.87
2018-12-16T11:48:51.025Z,21.92
2018-12-16T11:51:17.006Z,21.92
2018-12-16T11:53:42.994Z,21.89
2018-12-16T11:56:08.993Z,21.84
2018-12-16T11:58:34.977Z,21.81
2018-12-16T12:01:00.959Z,21.77
2018-12-16T12:03:26.998Z,21.76
2018-12-16T12:05:53.010Z,21.81
2018-12-16T12:08:18.994Z,21.81
2018-12-16T12:10:44.991Z,21.85
2018-12-16T12:13:11.009Z,21.78
2018-12-16T12:15:36.959Z,21.73
2018-12-16T12:18:03.008Z,21.69
2018-12-16T12:20:30.215Z,21.70
2018-12-16T12:22:56.195Z,22.09
2018-12-16T12:25:22.169Z,21.87
2018-12-16T12:27:48.180Z,21.81
2018-12-16T12:30:14.151Z,21.81
2018-12-16T12:32:40.146Z,21.78
2018-12-16T12:35:06.119Z,21.76
2018-12-16T12:37:32.104Z,21.75
2018-12-16T12:39:58.475Z,21.72
2018-12-16T12:42:24.468Z,21.71
2018-12-16T12:44:50.498Z,21.70
2018-12-16T12:47:16.479Z,21.68
2018-12-16T12:49:45.133Z,21.68
2018-12-16T12:52:08.445Z,21.70
2018-12-16T12:54:34.429Z,21.71
2018-12-16T12:57:00.430Z,21.75
2018-12-16T12:59:26.434Z,21.73
2018-12-16T13:01:52.427Z,21.74
2018-12-16T13:04:18.500Z,21.78
2018-12-16T13:06:44.494Z,21.78
2018-12-16T13:09:10.492Z,21.73
2018-12-16T13:11:36.507Z,21.71
2018-12-16T13:14:02.499Z,21.71
2018-12-16T13:16:28.499Z,21.73
2018-12-16T13:18:54.477Z,21.73
2018-12-16T13:21:20.451Z,21.70
2018-12-16T13:23:46.440Z,21.68
2018-12-16T13:26:12.414Z,21.68
2018-12-16T13:28:38.397Z,21.68
2018-12-16T13:31:04.371Z,21.67
2018-12-16T13:33:30.346Z,21.68
2018-12-16T13:35:56.324Z,21.68
2018-12-16T13:38:22.293Z,21.68
2018-12-16T13:40:48.282Z,21.69
2018-12-16T13:43:14.269Z,21.69
2018-12-16T13:45:40.239Z,21.68
2018-12-16T13:48:06.212Z,21.71
2018-12-16T13:50:32.187Z,21.77
2018-12-16T13:52:58.177Z,21.85
2018-12-16T13:55:24.163Z,21.89
2018-12-16T13:57:50.132Z,21.85
2018-12-16T14:00:16.140Z,21.83
2018-12-16T14:02:42.143Z,21.82
2018-12-16T14:05:08.113Z,21.80
2018-12-16T14:07:34.134Z,21.81
2018-12-16T14:10:00.134Z,21.83
2018-12-16T14:12:26.084Z,21.77
2018-12-16T14:14:52.072Z,21.79
2018-12-16T14:17:18.075Z,21.82
2018-12-16T14:19:44.048Z,21.81
2018-12-16T14:22:10.013Z,21.78
2018-12-16T14:24:36.014Z,21.75
2018-12-16T14:27:01.994Z,21.73
2018-12-16T14:29:27.998Z,21.75
2018-12-16T14:31:53.977Z,21.80
2018-12-16T14:34:19.966Z,21.81
2018-12-16T14:36:45.952Z,21.86
2018-12-16T14:39:11.959Z,21.86
2018-12-16T14:41:37.976Z,21.87
2018-12-16T14:44:04.031Z,21.86
2018-12-16T14:46:29.928Z,21.86
2018-12-16T14:48:55.896Z,21.86
2018-12-16T14:51:21.897Z,21.84
2018-12-16T14:53:50.863Z,21.83
2018-12-16T14:56:16.846Z,21.83
2018-12-16T14:58:42.828Z,21.81
2018-12-16T15:01:08.850Z,21.80
2018-12-16T15:03:34.841Z,21.81
2018-12-16T15:06:00.868Z,21.80
2018-12-16T15:08:26.840Z,21.79
2018-12-16T15:10:52.811Z,21.78
2018-12-16T15:13:18.828Z,21.78
2018-12-16T15:15:44.833Z,21.78
2018-12-16T15:18:10.817Z,21.77
2018-12-16T15:20:36.821Z,21.76
2018-12-16T15:23:02.808Z,21.75
2018-12-16T15:25:28.792Z,21.74
2018-12-16T15:27:54.806Z,21.73
2018-12-16T15:30:20.770Z,21.72
2018-12-16T15:32:46.753Z,21.74
2018-12-16T15:35:12.730Z,21.75
2018-12-16T15:37:38.721Z,21.74
2018-12-16T15:40:06.302Z,21.75
2018-12-16T15:42:30.676Z,21.75
2018-12-16T15:44:56.659Z,21.75
2018-12-16T15:47:22.634Z,21.75
2018-12-16T15:49:48.623Z,21.77
2018-12-16T15:52:14.618Z,21.76
2018-12-16T15:54:40.599Z,21.77
2018-12-16T15:57:06.575Z,21.78
2018-12-16T15:59:32.581Z,21.76
2018-12-16T16:01:58.564Z,21.77
2018-12-16T16:04:24.548Z,21.77
2018-12-16T16:06:50.574Z,21.79
2018-12-16T16:09:16.578Z,21.81
2018-12-16T16:11:42.552Z,21.83
2018-12-16T16:14:08.551Z,21.83
2018-12-16T16:16:34.554Z,21.82
2018-12-16T16:19:00.544Z,21.82
2018-12-16T16:21:26.519Z,21.84
2018-12-16T16:23:52.558Z,21.85
2018-12-16T16:26:18.521Z,21.86
2018-12-16T16:28:44.495Z,21.85
2018-12-16T16:31:10.464Z,21.86
2018-12-16T16:33:36.479Z,21.85
2018-12-16T16:36:02.474Z,21.86
2018-12-16T16:38:28.460Z,21.85
2018-12-16T16:40:54.444Z,21.87
2018-12-16T16:43:20.426Z,21.86
2018-12-16T16:45:46.398Z,21.86
2018-12-16T16:48:12.428Z,21.84
2018-12-16T16:50:38.431Z,21.84
2018-12-16T16:53:04.460Z,21.85
2018-12-16T16:55:30.464Z,21.83
2018-12-16T16:57:56.460Z,21.84
2018-12-16T17:00:22.458Z,21.84
2018-12-16T17:02:48.467Z,21.84
2018-12-16T17:05:14.437Z,21.85
2018-12-16T17:07:40.519Z,21.83
2018-12-16T17:10:06.509Z,21.82
2018-12-16T17:12:32.489Z,21.82
2018-12-16T17:14:58.482Z,21.82
2018-12-16T17:17:24.502Z,21.80
2018-12-16T17:19:50.484Z,21.79
2018-12-16T17:22:16.493Z,21.79
2018-12-16T17:24:42.477Z,21.78
2018-12-16T17:27:08.490Z,21.78
2018-12-16T17:29:34.464Z,21.77
2018-12-16T17:32:00.452Z,21.77
2018-12-16T17:34:26.419Z,21.74
2018-12-16T17:36:52.408Z,21.73
2018-12-16T17:39:18.393Z,21.72
2018-12-16T17:41:44.400Z,21.71
2018-12-16T17:44:10.367Z,21.72
2018-12-16T17:46:36.363Z,21.74
2018-12-16T17:49:02.423Z,21.74
2018-12-16T17:51:28.421Z,21.76
2018-12-16T17:53:54.401Z,21.76
2018-12-16T17:56:20.511Z,21.77
2018-12-16T17:58:46.593Z,21.78
2018-12-16T18:01:12.821Z,21.76
2018-12-16T18:03:38.810Z,21.76
2018-12-16T18:06:04.777Z,21.77
2018-12-16T18:08:30.760Z,21.78
2018-12-16T18:10:56.808Z,21.78
2018-12-16T18:13:22.775Z,21.79
2018-12-16T18:15:48.768Z,21.78
2018-12-16T18:18:14.743Z,21.78
2018-12-16T18:20:40.733Z,21.77
2018-12-16T18:23:06.707Z,21.78
2018-12-16T18:25:32.692Z,21.78
2018-12-16T18:27:58.690Z,21.76
2018-12-16T18:30:24.661Z,21.77
2018-12-16T18:32:50.783Z,21.77
2018-12-16T18:35:16.750Z,21.77
2018-12-16T18:37:42.764Z,21.79
2018-12-16T18:40:08.759Z,21.80
2018-12-16T18:42:34.733Z,21.80
2018-12-16T18:45:00.735Z,21.81
2018-12-16T18:47:26.777Z,21.79
2018-12-16T18:49:52.778Z,21.78
2018-12-16T18:52:18.758Z,21.78
2018-12-16T18:54:44.750Z,21.78
2018-12-16T18:57:10.745Z,21.77
2018-12-16T18:59:36.719Z,21.81
2018-12-16T19:02:02.724Z,21.79
2018-12-16T19:04:28.682Z,21.78
2018-12-16T19:06:54.654Z,21.76
2018-12-16T19:09:20.632Z,21.75
2018-12-16T19:11:46.683Z,21.74
2018-12-16T19:14:12.682Z,21.73
2018-12-16T19:16:38.654Z,21.71
2018-12-16T19:19:04.631Z,21.71
2018-12-16T19:21:30.622Z,21.71
2018-12-16T19:23:56.602Z,21.70
2018-12-16T19:26:22.608Z,21.70
2018-12-16T19:28:48.610Z,21.69
2018-12-16T19:31:14.598Z,21.67
2018-12-16T19:33:40.693Z,21.67
2018-12-16T19:36:06.702Z,21.65
2018-12-16T19:38:32.673Z,21.66
2018-12-16T19:40:58.681Z,21.68
2018-12-16T19:43:24.666Z,21.69
2018-12-16T19:45:50.635Z,21.71
2018-12-16T19:48:16.621Z,21.71
2018-12-16T19:50:42.602Z,21.71
2018-12-16T19:53:08.583Z,21.73
2018-12-16T19:55:34.576Z,21.73
2018-12-16T19:58:00.546Z,21.74
2018-12-16T20:00:26.544Z,21.73
2018-12-16T20:02:52.521Z,21.73
2018-12-16T20:05:18.524Z,21.73
2018-12-16T20:07:44.506Z,21.74
2018-12-16T20:10:10.492Z,21.75
2018-12-16T20:12:36.524Z,21.75
2018-12-16T20:15:02.472Z,21.74
2018-12-16T20:17:28.725Z,21.74
2018-12-16T20:19:54.702Z,21.74
2018-12-16T20:22:20.762Z,21.75
2018-12-16T20:24:46.760Z,21.74
2018-12-16T20:27:12.733Z,21.74
2018-12-16T20:29:38.715Z,21.75
2018-12-16T20:32:04.708Z,21.75
2018-12-16T20:34:30.809Z,21.75
2018-12-16T20:36:56.812Z,21.76
2018-12-16T20:39:22.943Z,21.75
2018-12-16T20:41:48.969Z,21.74
2018-12-16T20:44:14.970Z,21.74
2018-12-16T20:46:40.972Z,21.75
2018-12-16T20:49:07.046Z,21.75
2018-12-16T20:51:33.034Z,21.74
2018-12-16T20:53:59.012Z,21.74
2018-12-16T20:56:24.991Z,21.74
2018-12-16T20:58:50.983Z,21.74
2018-12-16T21:01:17.016Z,21.74
2018-12-16T21:03:42.995Z,21.75
2018-12-16T21:06:08.964Z,21.75
2018-12-16T21:08:34.974Z,21.75
2018-12-16T21:11:00.944Z,21.76
2018-12-16T21:13:26.929Z,21.74
2018-12-16T21:15:52.916Z,21.71
2018-12-16T21:18:18.909Z,21.70
2018-12-16T21:20:45.223Z,21.69
2018-12-16T21:23:11.165Z,21.69
2018-12-16T21:25:37.145Z,21.67
2018-12-16T21:28:03.130Z,21.66
2018-12-16T21:30:29.115Z,21.65
2018-12-16T21:32:55.106Z,21.63
2018-12-16T21:35:21.081Z,21.64
2018-12-16T21:37:47.088Z,21.63
2018-12-16T21:40:13.077Z,21.62
2018-12-16T21:42:39.065Z,21.61
2018-12-16T21:45:05.032Z,21.63
2018-12-16T21:47:31.034Z,21.63
2018-12-16T21:49:57.008Z,21.63
2018-12-16T21:52:22.983Z,21.63
2018-12-16T21:54:48.975Z,21.62
2018-12-16T21:57:14.965Z,21.62
2018-12-16T21:59:40.951Z,21.63
2018-12-16T22:02:06.954Z,21.61
2018-12-16T22:04:32.948Z,21.62
2018-12-16T22:06:58.936Z,21.61
2018-12-16T22:09:24.899Z,21.61
2018-12-16T22:11:50.920Z,21.61
2018-12-16T22:14:16.892Z,21.61
2018-12-16T22:16:42.869Z,21.61
2018-12-16T22:19:08.867Z,21.62
2018-12-16T22:21:34.852Z,21.60
2018-12-16T22:24:00.833Z,21.59
2018-12-16T22:26:26.802Z,21.60
2018-12-16T22:28:52.773Z,21.59
2018-12-16T22:31:18.772Z,21.59
2018-12-16T22:33:44.757Z,21.58
2018-12-16T22:36:10.775Z,21.59
2018-12-16T22:38:36.745Z,21.58
2018-12-16T22:41:02.731Z,21.59
2018-12-16T22:43:28.754Z,21.58
2018-12-16T22:45:54.723Z,21.57
2018-12-16T22:48:20.718Z,21.56
2018-12-16T22:50:46.684Z,21.57
2018-12-16T22:53:12.674Z,21.56
2018-12-16T22:55:38.632Z,21.56
2018-12-16T22:58:04.627Z,21.56
2018-12-16T23:00:30.606Z,21.56
2018-12-16T23:02:56.580Z,21.56
2018-12-16T23:05:22.561Z,21.56
2018-12-16T23:07:48.543Z,21.54
2018-12-16T23:10:14.566Z,21.54
2018-12-16T23:12:40.562Z,21.54
2018-12-16T23:15:06.528Z,21.55
2018-12-16T23:17:32.518Z,21.55
2018-12-16T23:19:58.509Z,21.54
2018-12-16T23:22:24.477Z,21.54
2018-12-16T23:24:50.480Z,21.54
2018-12-16T23:27:16.460Z,21.55
2018-12-16T23:29:42.441Z,21.54
2018-12-16T23:32:08.407Z,21.53
2018-12-16T23:34:34.401Z,21.53
2018-12-16T23:37:00.381Z,21.54
2018-12-16T23:39:26.384Z,21.54
2018-12-16T23:41:52.346Z,21.53
2018-12-16T23:44:18.340Z,21.53
2018-12-16T23:46:44.337Z,21.55
2018-12-16T23:49:10.328Z,21.53
2018-12-16T23:51:36.296Z,21.53
2018-12-16T23:54:02.304Z,21.52
2018-12-16T23:56:28.286Z,21.54
2018-12-16T23:58:54.250Z,21.53
